Time;durP1;ratioP1;P1;durP2;ratioP2;P2;SDS_P1;SDS_P2;PMS_P1;PMS_P2;Temp;Humidity;BMP_temperature;BMP_pressure;BME280_temperature;BME280_humidity;BME280_pressure;Samples;Min_cycle;Max_cycle;Signal;HPM_P1;HPM_P2
2022/07/11 00:00:09;;;;;;;1.35;0.60;;;;;;;12.57;67.39;98939.53;4485246;31;20130;-69
2022/07/11 00:02:39;;;;;;;1.62;0.60;;;;;;;12.57;67.50;98936.88;4485493;31;20135;-69
2022/07/11 00:05:08;;;;;;;2.28;0.60;;;;;;;12.50;67.97;98946.31;4485234;31;20440;-69
2022/07/11 00:07:37;;;;;;;3.83;0.68;;;;;;;12.45;68.43;98947.75;4485579;31;20100;-69
2022/07/11 00:10:04;;;;;;;2.47;0.68;;;;;;;12.41;68.73;98955.91;4485290;31;20127;-70
2022/07/11 00:12:32;;;;;;;2.10;0.73;;;;;;;12.39;68.98;98947.34;4485307;31;20446;-70
2022/07/11 00:14:59;;;;;;;2.20;0.60;;;;;;;12.37;69.27;98951.91;4485145;31;20092;-69
2022/07/11 00:17:26;;;;;;;4.97;0.70;;;;;;;12.34;69.49;98949.59;4485144;31;20161;-69
2022/07/11 00:19:54;;;;;;;1.33;0.60;;;;;;;12.37;69.57;98945.81;4485207;31;20398;-69
2022/07/11 00:22:21;;;;;;;1.10;0.90;;;;;;;12.34;69.83;98949.59;4485299;31;20148;-69
2022/07/11 00:24:48;;;;;;;4.60;0.70;;;;;;;12.33;70.07;98952.34;4485059;31;20106;-69
2022/07/11 00:27:16;;;;;;;1.98;0.80;;;;;;;12.31;70.32;98947.25;4485165;31;20525;-69
2022/07/11 00:29:43;;;;;;;3.33;0.90;;;;;;;12.31;70.43;98949.03;4485329;32;20522;-69
2022/07/11 00:32:10;;;;;;;0.95;0.70;;;;;;;12.29;70.69;98943.09;4485233;31;20096;-69
2022/07/11 00:34:37;;;;;;;1.20;0.73;;;;;;;12.26;70.99;98949.44;4485086;31;20096;-69
2022/07/11 00:37:05;;;;;;;1.08;0.68;;;;;;;12.22;71.26;98950.72;4485348;32;20126;-69
2022/07/11 00:39:32;;;;;;;2.78;0.80;;;;;;;12.23;71.47;98945.34;4485255;31;20097;-69
2022/07/11 00:42:00;;;;;;;2.05;0.75;;;;;;;12.23;71.53;98941.87;4484726;31;20096;-69
2022/07/11 00:44:27;;;;;;;2.08;0.90;;;;;;;12.17;71.98;98956.41;4485075;31;20123;-69
2022/07/11 00:46:54;;;;;;;2.28;0.80;;;;;;;12.14;72.29;98950.59;4484535;31;20118;-69
2022/07/11 00:49:22;;;;;;;2.00;1.02;;;;;;;12.16;72.39;98948.69;4485170;31;20108;-69
2022/07/11 00:51:49;;;;;;;3.12;0.80;;;;;;;12.16;72.41;98943.44;4484974;31;20160;-69
2022/07/11 00:54:17;;;;;;;3.22;1.00;;;;;;;12.13;72.69;98944.53;4483721;32;20084;-69
2022/07/11 00:56:44;;;;;;;2.00;0.88;;;;;;;12.16;72.75;98941.63;4483534;32;20147;-69
2022/07/11 00:59:11;;;;;;;1.42;0.70;;;;;;;12.20;72.64;98940.38;4484994;32;20153;-69
2022/07/11 01:01:39;;;;;;;4.87;1.05;;;;;;;12.18;72.70;98947.53;4483671;32;20111;-69
2022/07/11 01:04:06;;;;;;;0.93;0.52;;;;;;;12.16;72.92;98949.50;4483650;32;20149;-69
2022/07/11 01:06:33;;;;;;;2.53;0.80;;;;;;;12.11;73.18;98945.62;4485052;32;20138;-69
2022/07/11 01:09:00;;;;;;;1.25;0.73;;;;;;;12.06;73.47;98946.88;4484795;32;20115;-69
2022/07/11 01:11:28;;;;;;;1.77;0.90;;;;;;;12.07;73.51;98943.28;4484519;31;20097;-69
2022/07/11 01:13:55;;;;;;;1.67;0.80;;;;;;;12.03;73.81;98943.72;4484727;31;20100;-69
2022/07/11 01:16:23;;;;;;;1.30;0.65;;;;;;;12.03;73.96;98941.09;4484834;32;20572;-69
2022/07/11 01:18:51;;;;;;;3.65;0.80;;;;;;;12.00;74.08;98942.19;4484540;31;20164;-69
2022/07/11 01:21:29;;;;;;;4.40;0.95;;;;;;;12.07;73.89;98945.09;4484665;32;20168;-69
2022/07/11 01:23:59;;;;;;;3.58;1.12;;;;;;;12.15;73.69;98945.22;4483403;32;20076;-69
2022/07/11 01:26:27;;;;;;;3.67;0.80;;;;;;;12.18;73.64;98952.81;4484876;31;20224;-69
2022/07/11 01:28:57;;;;;;;2.35;0.70;;;;;;;12.19;73.64;98943.13;4484652;31;20088;-69
2022/07/11 01:31:25;;;;;;;2.03;0.85;;;;;;;12.14;73.77;98961.94;4484605;31;20159;-69
2022/07/11 01:33:52;;;;;;;1.58;0.82;;;;;;;12.13;73.92;98947.16;4484405;31;20086;-69
2022/07/11 01:36:20;;;;;;;3.12;0.80;;;;;;;12.10;74.12;98944.81;4484484;32;20119;-69
2022/07/11 01:38:47;;;;;;;1.08;0.80;;;;;;;12.10;74.20;98941.34;4484409;32;20152;-69
2022/07/11 01:41:14;;;;;;;1.80;1.00;;;;;;;12.10;74.28;98938.72;4484111;31;20084;-70
2022/07/11 01:43:41;;;;;;;1.33;0.73;;;;;;;12.07;74.26;98945.91;4484383;31;20133;-69
2022/07/11 01:46:09;;;;;;;1.58;1.02;;;;;;;12.07;74.32;98945.09;4484246;32;20100;-69
2022/07/11 01:48:36;;;;;;;1.90;0.80;;;;;;;12.04;74.40;98935.69;4484234;32;20444;-69
2022/07/11 01:51:04;;;;;;;2.70;0.73;;;;;;;12.06;74.40;98927.69;4484286;31;20092;-69
2022/07/11 01:53:31;;;;;;;4.45;0.85;;;;;;;12.02;74.64;98931.56;4484191;31;20496;-70
2022/07/11 01:55:59;;;;;;;4.70;1.00;;;;;;;12.03;74.63;98922.72;4484088;32;20150;-69
2022/07/11 01:58:46;;;;;;;2.50;0.90;;;;;;;12.05;74.56;98928.63;4484172;32;20151;-69
2022/07/11 02:01:14;;;;;;;3.42;0.90;;;;;;;12.03;74.63;98936.66;4486118;31;20100;-69
2022/07/11 02:03:42;;;;;;;2.10;0.90;;;;;;;12.01;74.75;98935.16;4484962;32;20101;-69
2022/07/11 02:06:10;;;;;;;3.33;1.92;;;;;;;12.02;74.75;98931.56;4485995;31;20175;-69
2022/07/11 02:08:37;;;;;;;1.83;0.80;;;;;;;12.05;74.72;98936.53;4486197;31;20518;-69
2022/07/11 02:11:04;;;;;;;6.18;1.20;;;;;;;12.05;74.71;98932.13;4486082;32;20138;-69
2022/07/11 02:13:31;;;;;;;1.67;0.73;;;;;;;12.03;74.73;98926.16;4486118;31;20107;-69
2022/07/11 02:15:58;;;;;;;5.12;0.80;;;;;;;12.06;74.73;98927.69;4486122;31;20119;-69
2022/07/11 02:18:26;;;;;;;1.17;0.90;;;;;;;12.03;74.81;98926.16;4485982;32;20469;-69
2022/07/11 02:20:53;;;;;;;2.05;1.00;;;;;;;12.05;74.83;98926.00;4486026;31;20167;-69
2022/07/11 02:23:21;;;;;;;3.12;1.10;;;;;;;12.02;74.85;98921.91;4484820;32;20089;-69
2022/07/11 02:25:48;;;;;;;4.32;1.20;;;;;;;12.05;74.78;98919.00;4486318;31;20119;-69
2022/07/11 02:28:15;;;;;;;2.50;1.00;;;;;;;12.04;74.85;98930.44;4486038;31;20084;-69
2022/07/11 02:30:45;;;;;;;2.58;0.90;;;;;;;12.06;74.71;98928.50;4486383;31;20088;-69
2022/07/11 02:33:16;;;;;;;2.10;0.85;;;;;;;12.06;74.73;98935.56;4486074;31;20153;-69
2022/07/11 02:35:46;;;;;;;2.62;0.88;;;;;;;12.07;74.79;98950.34;4486137;31;20159;-69
2022/07/11 02:38:14;;;;;;;2.92;1.02;;;;;;;12.12;74.55;98952.56;4485981;32;20114;-69
2022/07/11 02:40:44;;;;;;;3.10;1.20;;;;;;;12.07;74.80;98955.59;4485736;31;20172;-69
2022/07/11 02:43:12;;;;;;;1.62;1.12;;;;;;;11.99;75.28;98955.47;4485713;31;20176;-69
2022/07/11 02:45:40;;;;;;;4.32;1.10;;;;;;;11.96;75.43;98955.75;4486015;31;20119;-70
2022/07/11 02:48:07;;;;;;;5.28;1.15;;;;;;;11.95;75.50;98957.56;4485930;31;20152;-69
2022/07/11 02:50:34;;;;;;;3.60;1.23;;;;;;;11.92;75.61;98957.81;4486039;31;20088;-69
2022/07/11 02:53:02;;;;;;;3.30;1.12;;;;;;;11.90;75.71;98951.88;4485886;31;20093;-69
2022/07/11 02:55:29;;;;;;;2.50;0.93;;;;;;;11.84;75.95;98953.28;4485805;31;20100;-69
2022/07/11 02:57:56;;;;;;;5.28;1.17;;;;;;;11.83;75.84;98948.97;4485775;31;20100;-69
2022/07/11 03:00:24;;;;;;;5.90;1.20;;;;;;;11.84;75.80;98953.28;4485849;31;20141;-69
2022/07/11 03:02:51;;;;;;;2.72;0.93;;;;;;;11.85;75.79;98954.09;4485822;31;20111;-69
2022/07/11 03:05:18;;;;;;;7.70;2.03;;;;;;;11.85;75.74;98954.94;4486006;31;20108;-70
2022/07/11 03:07:45;;;;;;;4.75;1.00;;;;;;;11.88;75.59;98951.19;4485813;31;20100;-69
2022/07/11 03:10:12;;;;;;;2.83;1.05;;;;;;;11.82;75.87;98949.94;4485516;31;20115;-69
2022/07/11 03:12:40;;;;;;;8.40;1.35;;;;;;;11.76;76.17;98941.81;4485478;31;20119;-70
2022/07/11 03:15:08;;;;;;;1.73;1.10;;;;;;;11.68;76.31;98943.34;4486044;31;20450;-69
2022/07/11 03:17:35;;;;;;;2.45;1.00;;;;;;;11.72;76.17;98941.28;4485934;31;20434;-69
2022/07/11 03:20:04;;;;;;;5.62;1.23;;;;;;;11.68;76.28;98932.84;4485652;32;20133;-69
2022/07/11 03:22:32;;;;;;;2.70;1.20;;;;;;;11.74;76.07;98934.06;4485679;31;20480;-70
2022/07/11 03:25:05;;;;;;;2.65;1.08;;;;;;;11.76;75.92;98931.31;4485534;32;20100;-69
2022/07/11 03:27:33;;;;;;;6.53;1.35;;;;;;;11.86;75.27;98930.31;4485732;31;20107;-69
2022/07/11 03:30:00;;;;;;;1.20;1.00;;;;;;;11.97;74.74;98933.78;4485585;31;20096;-69
2022/07/11 03:32:27;;;;;;;3.12;1.10;;;;;;;12.19;73.98;98932.63;4485616;32;20096;-69
2022/07/11 03:37:41;;;;;;;1.67;0.93;;;;;;;12.36;73.16;98941.56;4485435;31;20092;-69
2022/07/11 03:40:10;;;;;;;4.78;1.50;;;;;;;12.52;72.46;98944.41;4485524;31;20156;-69
2022/07/11 03:42:37;;;;;;;3.53;1.20;;;;;;;12.51;72.34;98953.25;4485162;31;20142;-70
2022/07/11 03:45:05;;;;;;;4.25;1.02;;;;;;;12.53;72.38;98955.72;4485627;31;20153;-69
2022/07/11 03:47:32;;;;;;;3.92;1.08;;;;;;;12.40;72.81;98956.06;4485612;31;20451;-69
2022/07/11 03:50:00;;;;;;;1.87;1.15;;;;;;;12.41;72.94;98960.34;4485643;32;20511;-69
2022/07/11 03:52:28;;;;;;;1.80;1.10;;;;;;;12.40;73.19;98964.75;4485624;31;20096;-69
2022/07/11 03:54:55;;;;;;;3.50;1.37;;;;;;;12.28;73.52;98967.69;4485352;31;20101;-69
2022/07/11 03:57:22;;;;;;;4.78;1.30;;;;;;;12.27;73.81;98961.62;4485552;32;20598;-69
2022/07/11 03:59:49;;;;;;;3.05;0.82;;;;;;;12.29;73.63;98964.94;4485344;32;20092;-69
2022/07/11 04:02:17;;;;;;;6.45;1.37;;;;;;;12.27;73.95;98966.06;4485586;31;20096;-69
2022/07/11 04:04:44;;;;;;;7.12;1.30;;;;;;;12.25;74.06;98964.41;4485157;32;20859;-69
2022/07/11 04:07:11;;;;;;;3.28;1.25;;;;;;;12.28;73.89;98965.91;4485544;31;20529;-69
2022/07/11 04:09:38;;;;;;;3.75;1.00;;;;;;;12.32;73.92;98958.56;4485336;31;20390;-69
2022/07/11 04:12:06;;;;;;;4.70;1.20;;;;;;;12.37;73.65;98954.53;4485136;32;20160;-69
2022/07/11 04:14:33;;;;;;;3.17;1.17;;;;;;;12.35;73.76;98955.66;4485291;31;20088;-69
2022/07/11 04:17:00;;;;;;;1.70;1.00;;;;;;;12.34;73.70;98962.72;4485371;31;20104;-69
2022/07/11 04:19:28;;;;;;;2.25;0.98;;;;;;;12.34;73.84;98967.97;4485454;31;20521;-70
2022/07/11 04:21:55;;;;;;;4.50;1.20;;;;;;;12.43;73.80;98977.63;4484404;31;20412;-69
2022/07/11 04:24:23;;;;;;;4.53;1.45;;;;;;;12.60;73.19;98969.94;4485231;31;20100;-69
2022/07/11 04:26:50;;;;;;;2.58;1.35;;;;;;;12.73;72.70;98966.97;4485361;31;20118;-69
2022/07/11 04:29:17;;;;;;;4.95;1.30;;;;;;;12.73;72.65;98975.69;4485302;31;20080;-69
2022/07/11 04:31:44;;;;;;;4.20;1.35;;;;;;;12.88;72.01;98976.00;4485298;31;20522;-69
2022/07/11 04:34:13;;;;;;;3.83;1.20;;;;;;;12.85;72.09;98978.94;4485282;32;20119;-69
2022/07/11 04:36:40;;;;;;;3.62;1.00;;;;;;;13.10;71.23;98972.16;4485371;31;20099;-69
2022/07/11 04:39:07;;;;;;;4.97;1.17;;;;;;;13.08;71.36;98971.50;4485225;31;20160;-69
2022/07/11 04:41:35;;;;;;;2.53;1.23;;;;;;;13.28;70.75;98974.81;4484829;31;20092;-69
2022/07/11 04:44:02;;;;;;;2.87;1.00;;;;;;;13.14;71.17;98980.56;4485190;31;20092;-69
2022/07/11 04:46:31;;;;;;;1.62;1.10;;;;;;;13.17;71.38;98979.47;4485106;31;20096;-69
2022/07/11 04:48:59;;;;;;;2.55;1.20;;;;;;;13.24;70.96;98986.59;4485130;31;20096;-69
2022/07/11 04:51:26;;;;;;;3.87;1.10;;;;;;;13.41;70.39;98986.81;4485400;31;20084;-69
2022/07/11 04:53:53;;;;;;;5.68;1.30;;;;;;;13.37;70.46;98991.53;4483844;32;20494;-69
2022/07/11 04:56:20;;;;;;;1.33;0.98;;;;;;;13.64;69.56;98993.28;4484865;31;20104;-69
2022/07/11 04:58:47;;;;;;;3.53;1.30;;;;;;;13.86;68.57;98995.59;4485055;31;20088;-69
2022/07/11 05:01:15;;;;;;;5.22;1.05;;;;;;;14.05;67.83;98997.19;4483722;32;20099;-68
2022/07/11 05:03:42;;;;;;;2.90;1.40;;;;;;;14.03;67.63;98984.19;4484530;31;20153;-69
2022/07/11 05:06:10;;;;;;;3.10;1.05;;;;;;;14.25;67.06;98985.50;4484683;31;20104;-69
2022/07/11 05:08:37;;;;;;;8.75;1.48;;;;;;;14.48;66.29;98984.97;4469238;32;20207;-69
2022/07/11 05:11:05;;;;;;;7.55;1.30;;;;;;;14.69;65.24;98982.78;4469093;32;20107;-69
2022/07/11 05:13:32;;;;;;;2.72;1.20;;;;;;;14.57;65.74;98993.75;4469110;32;20093;-69
2022/07/11 05:15:59;;;;;;;3.37;1.00;;;;;;;14.62;65.23;98987.03;4469024;32;20148;-69
2022/07/11 05:18:26;;;;;;;3.35;1.17;;;;;;;14.45;65.65;98996.63;4468997;32;20139;-69
2022/07/11 05:20:54;;;;;;;3.33;1.12;;;;;;;14.23;66.56;99013.81;4469054;32;20517;-69
2022/07/11 05:23:21;;;;;;;4.60;1.10;;;;;;;14.22;66.88;99006.03;4484573;31;20096;-69
2022/07/11 05:25:49;;;;;;;3.25;1.00;;;;;;;14.19;66.85;99001.94;4484539;32;20124;-69
2022/07/11 05:28:16;;;;;;;2.85;1.15;;;;;;;14.17;66.92;99012.63;4484676;31;20084;-69
2022/07/11 05:30:43;;;;;;;3.45;1.10;;;;;;;14.18;66.70;99005.53;4484408;31;20092;-70
2022/07/11 05:33:10;;;;;;;3.35;1.25;;;;;;;14.43;66.01;99003.03;4484867;31;20105;-69
2022/07/11 05:35:37;;;;;;;2.22;1.40;;;;;;;14.49;65.81;99002.44;4486444;31;20126;-69
2022/07/11 05:38:04;;;;;;;5.87;1.60;;;;;;;14.42;65.92;99006.69;4486185;32;20461;-69
2022/07/11 05:40:32;;;;;;;3.85;1.33;;;;;;;14.23;66.63;99010.34;4486347;31;20107;-69
2022/07/11 05:43:00;;;;;;;2.72;1.10;;;;;;;14.13;67.18;99013.91;4486062;32;20096;-69
2022/07/11 05:45:28;;;;;;;2.12;1.25;;;;;;;14.12;67.49;99016.69;4485871;31;20100;-69
2022/07/11 05:47:55;;;;;;;3.40;1.08;;;;;;;14.31;67.19;99005.13;4486159;31;20119;-69
2022/07/11 05:50:22;;;;;;;4.15;1.58;;;;;;;14.68;65.92;99001.41;4486190;31;20145;-69
2022/07/11 05:52:49;;;;;;;1.95;1.10;;;;;;;14.90;65.32;99010.56;4483714;31;20166;-69
2022/07/11 05:55:17;;;;;;;2.47;1.00;;;;;;;15.10;64.15;99011.13;4473651;32;20145;-69
2022/07/11 05:57:45;;;;;;;2.75;1.27;;;;;;;15.38;63.01;99006.44;4482893;31;20088;-69
2022/07/11 06:00:13;;;;;;;2.72;1.00;;;;;;;15.55;62.51;99015.19;4483162;31;20564;-69
2022/07/11 06:02:42;;;;;;;2.83;1.20;;;;;;;15.45;62.03;99019.78;4483605;31;20104;-69
2022/07/11 06:05:11;;;;;;;4.43;0.93;;;;;;;15.27;63.04;99017.28;4483417;31;20122;-69
2022/07/11 06:10:27;;;;;;;3.40;1.10;;;;;;;15.18;63.67;99015.59;4483600;31;20446;-69
2022/07/11 06:12:55;;;;;;;3.65;1.27;;;;;;;15.76;61.97;99016.50;4483591;31;20738;-69
2022/07/11 06:15:22;;;;;;;4.68;1.15;;;;;;;16.25;60.70;99010.44;4482949;31;20465;-69
2022/07/11 06:17:50;;;;;;;2.33;1.05;;;;;;;16.78;59.42;99011.59;4483245;31;20104;-69
2022/07/11 06:20:17;;;;;;;3.12;1.00;;;;;;;16.93;58.21;99013.56;4483746;31;20096;-69
2022/07/11 06:22:45;;;;;;;2.40;1.15;;;;;;;16.84;57.56;99021.50;4482259;32;20436;-69
2022/07/11 06:25:12;;;;;;;4.25;1.92;;;;;;;16.66;58.19;99021.72;4483420;31;20100;-69
2022/07/11 06:27:39;;;;;;;4.90;1.40;;;;;;;16.66;58.12;99013.78;4483668;31;20103;-69
2022/07/11 06:30:07;;;;;;;6.05;1.05;;;;;;;16.80;57.66;99024.66;4483682;31;20096;-69
2022/07/11 06:32:34;;;;;;;5.62;1.37;;;;;;;16.90;57.07;99020.03;4482221;32;20120;-69
2022/07/11 06:35:01;;;;;;;3.55;1.12;;;;;;;17.07;56.58;99022.59;4483535;31;20096;-69
2022/07/11 06:37:28;;;;;;;4.55;1.23;;;;;;;16.98;56.89;99037.69;4483391;31;20165;-69
2022/07/11 06:39:56;;;;;;;4.62;1.17;;;;;;;17.03;56.71;99030.06;4482267;32;20431;-69
2022/07/11 06:42:23;;;;;;;5.03;1.10;;;;;;;17.07;56.00;99034.00;4483179;31;20119;-69
2022/07/11 06:44:54;;;;;;;4.25;1.17;;;;;;;17.13;55.48;99038.63;4483583;32;20091;-69
2022/07/11 06:47:21;;;;;;;7.65;1.75;;;;;;;17.23;55.54;99034.91;4483495;31;20151;-69
2022/07/11 06:49:48;;;;;;;5.10;1.10;;;;;;;17.32;55.52;99036.53;4483440;31;20088;-69
2022/07/11 06:52:15;;;;;;;5.35;1.05;;;;;;;17.65;54.77;99037.19;4483042;31;20115;-69
2022/07/11 06:54:43;;;;;;;4.60;1.55;;;;;;;17.82;53.87;99039.69;4483287;32;20171;-69
2022/07/11 06:57:10;;;;;;;6.30;1.25;;;;;;;18.14;52.71;99038.63;4483398;31;20220;-69
2022/07/11 06:59:38;;;;;;;5.18;1.10;;;;;;;18.02;52.81;99051.50;4483262;31;20427;-69
2022/07/11 07:02:06;;;;;;;3.72;0.95;;;;;;;18.08;53.15;99045.47;4482679;31;20482;-69
2022/07/11 07:04:33;;;;;;;1.05;0.80;;;;;;;18.04;53.17;99053.97;4483347;31;20087;-69
2022/07/11 07:07:01;;;;;;;9.27;1.20;;;;;;;18.11;52.59;99054.91;4483184;31;20126;-69
2022/07/11 07:09:29;;;;;;;4.70;1.52;;;;;;;18.17;52.67;99048.87;4483738;31;20126;-69
2022/07/11 07:11:57;;;;;;;2.58;1.23;;;;;;;18.08;53.85;99049.97;4482746;31;20422;-69
2022/07/11 07:14:24;;;;;;;4.22;1.17;;;;;;;18.27;52.48;99051.28;4483509;31;20168;-69
2022/07/11 07:16:52;;;;;;;5.47;2.00;;;;;;;18.43;52.79;99052.97;4482904;32;20143;-69
2022/07/11 07:19:20;;;;;;;4.75;1.37;;;;;;;18.48;52.38;99049.75;4483630;31;20183;-69
2022/07/11 07:21:48;;;;;;;3.08;1.30;;;;;;;18.63;51.24;99046.09;4482873;32;20446;-69
2022/07/11 07:24:15;;;;;;;6.35;1.20;;;;;;;18.89;50.28;99047.50;4483315;31;20535;-69
2022/07/11 07:26:44;;;;;;;5.37;0.90;;;;;;;18.96;49.97;99048.41;4482960;32;20101;-69
2022/07/11 07:29:11;;;;;;;6.25;1.37;;;;;;;18.30;51.22;99053.56;4483209;31;20591;-69
2022/07/11 07:31:39;;;;;;;4.72;1.10;;;;;;;18.84;50.90;99049.88;4483023;32;20096;-69
2022/07/11 07:34:08;;;;;;;2.92;0.98;;;;;;;19.22;49.98;99056.91;4483007;31;20149;-69
2022/07/11 07:36:36;;;;;;;1.60;0.80;;;;;;;19.01;49.57;99053.19;4483204;32;20488;-69
2022/07/11 07:39:03;;;;;;;3.08;0.90;;;;;;;18.90;49.50;99046.50;4483217;31;20096;-69
2022/07/11 07:41:31;;;;;;;3.15;1.10;;;;;;;19.07;49.05;99043.66;4482582;31;20461;-69
2022/07/11 07:43:58;;;;;;;4.22;1.00;;;;;;;18.91;49.04;99048.16;4483433;32;20084;-69
2022/07/11 07:46:26;;;;;;;3.45;0.90;;;;;;;18.93;48.61;99047.97;4482280;32;20474;-69
2022/07/11 07:48:53;;;;;;;3.40;1.02;;;;;;;18.99;49.21;99049.09;4482805;31;20152;-69
2022/07/11 07:51:21;;;;;;;3.40;0.95;;;;;;;19.04;49.22;99049.34;4483125;31;20116;-69
2022/07/11 07:53:49;;;;;;;4.28;1.45;;;;;;;18.96;48.75;99052.91;4482860;32;20100;-69
2022/07/11 07:56:23;;;;;;;4.22;1.08;;;;;;;18.76;49.11;99042.00;4481364;32;20103;-69
2022/07/11 07:58:51;;;;;;;4.05;1.10;;;;;;;19.08;48.76;99050.63;4482334;31;20088;-69
2022/07/11 08:01:36;;;;;;;3.70;1.00;;;;;;;18.98;48.28;99037.62;4483043;31;20101;-69
2022/07/11 08:04:06;;;;;;;3.78;1.00;;;;;;;19.35;47.23;99033.16;4481271;32;20096;-69
2022/07/11 08:06:34;;;;;;;2.58;0.90;;;;;;;19.45;47.83;99035.50;4476352;31;20560;-70
2022/07/11 08:09:03;;;;;;;2.30;0.73;;;;;;;19.54;46.03;99038.88;4482411;32;20168;-69
2022/07/11 08:11:30;;;;;;;4.25;1.10;;;;;;;19.45;44.45;99031.00;4482861;31;20618;-69
2022/07/11 08:13:59;;;;;;;3.12;0.80;;;;;;;19.40;44.94;99030.75;4482811;32;20104;-69
2022/07/11 08:16:28;;;;;;;4.00;1.00;;;;;;;18.96;44.84;99037.81;4482963;32;20171;-69
2022/07/11 08:18:59;;;;;;;3.45;0.85;;;;;;;19.07;45.85;99038.34;4482630;31;20100;-69
2022/07/11 08:21:28;;;;;;;3.67;1.17;;;;;;;19.22;45.96;99025.84;4482677;31;20097;-69
2022/07/11 08:23:56;;;;;;;2.97;0.90;;;;;;;19.48;45.68;99027.16;4482465;31;20126;-69
2022/07/11 08:26:24;;;;;;;4.57;0.90;;;;;;;19.69;44.57;99031.66;4482724;31;20575;-69
2022/07/11 08:29:03;;;;;;;5.97;1.05;;;;;;;19.63;43.85;99037.75;4482641;31;20183;-69
2022/07/11 08:31:31;;;;;;;3.55;0.80;;;;;;;19.63;43.78;99038.56;4482816;31;20116;-69
2022/07/11 08:33:59;;;;;;;2.55;0.82;;;;;;;19.72;43.53;99035.78;4482735;31;20096;-69
2022/07/11 08:36:29;;;;;;;7.00;1.10;;;;;;;20.03;42.77;99031.00;4482764;31;20476;-69
2022/07/11 08:38:58;;;;;;;4.20;0.80;;;;;;;20.30;42.85;99017.91;4482362;31;20096;-69
2022/07/11 08:41:26;;;;;;;4.72;0.90;;;;;;;20.19;41.69;99032.53;4482291;31;20119;-69
2022/07/11 08:43:54;;;;;;;1.62;1.00;;;;;;;19.92;42.01;99036.81;4482790;31;20276;-69
2022/07/11 08:46:21;;;;;;;5.28;1.08;;;;;;;19.66;42.40;99029.38;4482949;31;20093;-69
2022/07/11 08:48:50;;;;;;;1.67;0.70;;;;;;;19.72;41.50;99025.16;4482654;31;20118;-69
2022/07/11 08:51:17;;;;;;;1.95;0.70;;;;;;;20.19;41.04;99016.56;4482642;31;20096;-69
2022/07/11 08:53:44;;;;;;;3.62;0.95;;;;;;;20.09;40.67;99031.22;4482012;31;20095;-69
2022/07/11 08:56:37;;;;;;;4.72;0.70;;;;;;;20.25;40.85;99016.84;4470969;32;20175;-69
2022/07/11 08:59:04;;;;;;;2.67;0.80;;;;;;;20.76;40.09;99013.91;4481195;31;20118;-69
2022/07/11 09:01:34;;;;;;;4.22;1.17;;;;;;;20.72;38.58;99015.31;4481448;31;20164;-69
2022/07/11 09:04:02;;;;;;;2.95;1.20;;;;;;;20.64;39.65;99026.09;4481886;31;20584;-69
2022/07/11 09:06:30;;;;;;;3.67;0.88;;;;;;;20.64;39.54;99012.78;4482045;31;20626;-69
2022/07/11 09:09:00;;;;;;;2.95;1.17;;;;;;;20.86;38.71;99016.19;4481882;31;20096;-70
2022/07/11 09:11:49;;;;;;;9.65;1.55;;;;;;;21.35;37.59;99015.16;4482374;31;20096;-69
2022/07/11 09:14:22;;;;;;;4.15;0.95;;;;;;;21.36;38.39;99006.12;4482685;31;20363;-69
2022/07/11 09:17:05;;;;;;;3.80;1.30;;;;;;;22.00;38.67;99012.00;4474836;31;232341;-68
2022/07/11 09:19:41;;;;;;;2.65;0.80;;;;;;;21.55;37.23;99014.41;4482109;32;20511;-69
2022/07/11 09:25:23;;;;;;;3.05;0.70;;;;;;;20.70;38.31;99014.69;4480956;31;20425;-69
2022/07/11 09:27:54;;;;;;;3.10;0.90;;;;;;;20.70;38.94;99018.16;4476229;32;20581;-68
2022/07/11 09:30:30;;;;;;;4.40;0.80;;;;;;;20.97;38.54;99012.13;4482163;31;20354;-68
2022/07/11 09:33:00;;;;;;;3.05;1.40;;;;;;;21.11;38.41;98995.19;4481686;31;20116;-68
2022/07/11 09:35:31;;;;;;;2.97;0.85;;;;;;;21.42;37.79;98994.66;4482028;32;20119;-68
2022/07/11 09:38:02;;;;;;;1.42;0.65;;;;;;;21.87;35.60;99003.97;4482124;31;20171;-68
2022/07/11 09:40:30;;;;;;;5.18;0.93;;;;;;;21.77;35.88;98999.88;4481781;31;20118;-69
2022/07/11 09:42:58;;;;;;;2.92;0.85;;;;;;;22.17;35.41;99000.91;4481659;32;20730;-69
2022/07/11 09:45:30;;;;;;;2.55;0.85;;;;;;;22.31;35.68;98999.88;4481085;31;20120;-69
2022/07/11 09:48:07;;;;;;;1.60;1.00;;;;;;;22.06;34.69;99000.50;4480426;32;20096;-69
2022/07/11 09:50:35;;;;;;;5.20;0.88;;;;;;;21.82;34.65;98998.41;4481715;31;20073;-69
2022/07/11 09:53:03;;;;;;;2.95;0.82;;;;;;;22.23;34.06;98997.41;4481765;31;20108;-69
2022/07/11 09:55:33;;;;;;;1.42;0.52;;;;;;;22.57;33.61;98999.00;4478726;31;20123;-69
2022/07/11 09:58:21;;;;;;;2.85;0.85;;;;;;;22.50;32.77;98993.69;4481924;31;20092;-70
2022/07/11 10:00:51;;;;;;;3.28;0.93;;;;;;;22.35;33.22;99001.09;4482164;31;20110;-69
2022/07/11 10:03:20;;;;;;;2.28;0.80;;;;;;;22.22;34.14;99004.56;4481754;31;20104;-69
2022/07/11 10:06:07;;;;;;;4.90;1.00;;;;;;;22.58;33.54;98992.63;4481076;31;20137;-69
2022/07/11 10:08:35;;;;;;;3.33;0.82;;;;;;;21.95;34.27;98999.25;4481302;31;20499;-69
2022/07/11 10:11:02;;;;;;;5.28;1.10;;;;;;;21.86;34.44;98995.13;4481328;31;20088;-69
2022/07/11 10:13:30;;;;;;;2.00;1.08;;;;;;;22.56;33.54;98996.53;4481083;32;20420;-69
2022/07/11 10:15:58;;;;;;;3.20;0.95;;;;;;;22.56;32.74;98991.19;4479748;32;20112;-69
2022/07/11 10:18:33;;;;;;;5.65;1.00;;;;;;;22.17;33.23;98999.03;4467150;32;20104;-69
2022/07/11 10:21:07;;;;;;;4.45;0.80;;;;;;;22.06;32.99;98988.97;4481300;32;20080;-69
2022/07/11 10:24:16;;;;;;;2.05;1.05;;;;;;;21.45;33.20;98994.28;4482385;32;20156;-69
2022/07/11 10:27:05;;;;;;;5.85;1.10;;;;;;;21.37;33.38;98986.44;4468856;32;20127;-69
2022/07/11 10:29:39;;;;;;;3.67;0.82;;;;;;;21.55;33.75;98990.41;4482172;32;20531;-69
2022/07/11 10:32:11;;;;;;;2.87;1.20;;;;;;;21.56;33.52;98994.69;4483677;32;20462;-69
2022/07/11 10:34:42;;;;;;;6.53;1.12;;;;;;;21.47;33.86;98993.22;4483339;31;20123;-69
2022/07/11 10:37:09;;;;;;;3.37;1.25;;;;;;;21.66;33.80;98987.13;4483602;32;20224;-69
2022/07/11 10:39:37;;;;;;;3.50;0.90;;;;;;;22.26;33.10;98984.44;4483606;32;20110;-69
2022/07/11 10:42:06;;;;;;;4.30;1.35;;;;;;;22.07;33.20;98978.09;4483109;31;20123;-69
2022/07/11 10:44:54;;;;;;;1.98;0.98;;;;;;;22.31;32.66;98975.84;4483701;32;20136;-69
2022/07/11 10:47:42;;;;;;;4.57;0.90;;;;;;;22.55;32.92;98977.03;4480853;31;20131;-69
2022/07/11 10:50:31;;;;;;;3.00;0.80;;;;;;;22.56;32.03;98969.81;4470200;32;20080;-69
2022/07/11 10:53:04;;;;;;;4.65;1.30;;;;;;;22.43;31.99;98968.84;4479665;32;20513;-69
2022/07/11 10:55:36;;;;;;;3.75;1.00;;;;;;;22.12;33.73;98972.97;4483300;32;20096;-69
2022/07/11 10:58:25;;;;;;;2.45;0.90;;;;;;;21.95;35.27;98969.09;4485762;32;20093;-69
2022/07/11 11:01:13;;;;;;;1.50;0.73;;;;;;;22.13;35.37;98973.78;4484723;32;20092;-69
2022/07/11 11:03:41;;;;;;;0.93;0.73;;;;;;;22.23;35.20;98971.53;4485902;32;20080;-69
2022/07/11 11:06:09;;;;;;;4.40;0.98;;;;;;;22.46;34.25;98972.94;4486144;32;20454;-69
2022/07/11 11:08:37;;;;;;;4.82;1.12;;;;;;;22.19;34.20;98977.50;4485871;31;20149;-69
2022/07/11 11:11:19;;;;;;;4.93;1.17;;;;;;;21.90;34.68;98974.22;4485704;31;20096;-69
2022/07/11 11:14:32;;;;;;;4.70;1.10;;;;;;;21.77;34.58;98965.22;4485979;31;20088;-69
2022/07/11 11:17:34;;;;;;;3.03;0.90;;;;;;;21.72;34.76;98977.50;4421419;32;20101;-69
2022/07/11 11:20:03;;;;;;;2.40;0.80;;;;;;;21.90;34.34;98964.37;4421324;32;20095;-69
2022/07/11 11:22:30;;;;;;;2.75;1.00;;;;;;;22.41;32.68;98964.75;4408772;32;20170;-69
2022/07/11 11:24:57;;;;;;;4.07;0.88;;;;;;;22.76;32.23;98967.13;4421128;32;20085;-69
2022/07/11 11:28:03;;;;;;;1.25;0.62;;;;;;;23.37;30.96;98953.22;4421331;32;20146;-69
2022/07/11 11:30:31;;;;;;;1.70;0.73;;;;;;;23.44;30.16;98953.19;4421460;32;20148;-69
2022/07/11 11:32:59;;;;;;;3.80;0.60;;;;;;;23.10;31.06;98968.59;4421661;32;20086;-69
2022/07/11 11:35:26;;;;;;;3.60;0.60;;;;;;;23.37;30.70;98958.56;4408742;32;20527;-69
2022/07/11 11:37:58;;;;;;;2.97;0.90;;;;;;;23.77;30.25;98948.63;4421524;32;20550;-69
2022/07/11 11:40:25;;;;;;;3.62;0.95;;;;;;;23.78;29.92;98969.00;4421143;32;20494;-69
2022/07/11 11:42:52;;;;;;;4.50;1.10;;;;;;;23.47;30.58;98968.00;4420955;32;20514;-69
2022/07/11 11:45:21;;;;;;;3.70;0.90;;;;;;;23.40;29.42;98965.34;4421181;32;20163;-69
2022/07/11 11:47:49;;;;;;;7.90;0.88;;;;;;;23.24;30.07;98969.38;4453139;32;20111;-69
2022/07/11 11:50:17;;;;;;;3.50;0.75;;;;;;;23.36;29.05;98969.47;4485610;31;20093;-69
2022/07/11 11:52:44;;;;;;;3.20;0.88;;;;;;;23.37;29.69;98971.13;4485618;31;20111;-69